Time;durP1;ratioP1;P1;durP2;ratioP2;P2;SDS_P1;SDS_P2;PMS_P1;PMS_P2;Temp;Humidity;BMP_temperature;BMP_pressure;BME280_temperature;BME280_humidity;BME280_pressure;Samples;Min_cycle;Max_cycle;Signal;HPM_P1;HPM_P2
2024/02/10 00:01:45;;;;;;;15.63;13.20;;;12.30;99.90;;;;;;4993751;28;20462;-70
2024/02/10 00:04:13;;;;;;;17.53;11.87;;;12.30;99.90;;;;;;4994177;28;20432;-71
2024/02/10 00:06:39;;;;;;;11.53;10.40;;;12.30;99.90;;;;;;4993801;28;20826;-71
2024/02/10 00:09:06;;;;;;;14.37;12.97;;;12.30;99.90;;;;;;4993605;28;20442;-71
2024/02/10 00:11:32;;;;;;;14.90;12.70;;;12.40;99.90;;;;;;4994111;28;20596;-71
2024/02/10 00:13:58;;;;;;;15.40;13.87;;;12.50;99.90;;;;;;4993864;28;20433;-70
2024/02/10 00:16:28;;;;;;;16.80;12.67;;;12.50;99.90;;;;;;4993919;28;20410;-70
2024/02/10 00:18:57;;;;;;;16.40;13.97;;;12.50;99.90;;;;;;4993539;28;20216;-71
2024/02/10 00:21:29;;;;;;;14.60;13.17;;;12.50;99.90;;;;;;4993562;28;20432;-71
2024/02/10 00:23:55;;;;;;;15.80;13.80;;;12.40;99.90;;;;;;4993492;28;20451;-70
2024/02/10 00:26:22;;;;;;;16.47;14.87;;;12.40;99.90;;;;;;4992276;28;20491;-70
2024/02/10 00:28:51;;;;;;;16.53;14.27;;;12.50;99.90;;;;;;4993412;28;20915;-71
2024/02/10 00:31:16;;;;;;;18.10;15.73;;;12.50;99.90;;;;;;4993883;28;20402;-71
2024/02/10 00:33:46;;;;;;;18.27;16.27;;;12.40;99.90;;;;;;4993433;28;20497;-70
2024/02/10 00:36:12;;;;;;;15.27;13.77;;;12.40;99.90;;;;;;4993749;28;20257;-71
2024/02/10 00:38:40;;;;;;;16.17;14.47;;;12.40;99.90;;;;;;4993649;28;20827;-71
2024/02/10 00:41:06;;;;;;;15.80;13.90;;;12.50;99.90;;;;;;4992308;28;20454;-71
2024/02/10 00:43:32;;;;;;;16.47;14.03;;;12.40;99.90;;;;;;4992191;28;20835;-71
2024/02/10 00:45:59;;;;;;;18.87;15.77;;;12.40;99.90;;;;;;4993660;28;20403;-71
2024/02/10 00:48:28;;;;;;;16.03;14.53;;;12.30;99.90;;;;;;4993483;28;20162;-70
2024/02/10 00:51:00;;;;;;;17.13;15.33;;;12.40;99.90;;;;;;4992382;28;20415;-70
2024/02/10 00:53:26;;;;;;;16.00;14.40;;;12.40;99.90;;;;;;5012843;28;20461;-69
2024/02/10 00:55:52;;;;;;;18.33;16.43;;;12.30;99.90;;;;;;4994498;28;20424;-70
2024/02/10 00:58:17;;;;;;;16.70;14.60;;;12.30;99.90;;;;;;4993589;28;20284;-70
2024/02/10 01:00:45;;;;;;;15.70;13.80;;;12.30;99.90;;;;;;4993056;28;20201;-69
2024/02/10 01:03:13;;;;;;;14.70;13.30;;;12.30;99.90;;;;;;4993094;28;20187;-70
2024/02/10 01:05:39;;;;;;;14.70;13.23;;;12.20;99.90;;;;;;4993996;28;20404;-71
2024/02/10 01:08:05;;;;;;;13.10;11.90;;;12.20;99.90;;;;;;4992746;28;20408;-69
2024/02/10 01:10:31;;;;;;;13.03;11.80;;;12.20;99.90;;;;;;4993770;28;20412;-70
2024/02/10 01:13:03;;;;;;;11.13;10.03;;;12.20;99.90;;;;;;4997320;28;20966;-70
2024/02/10 01:15:30;;;;;;;13.13;11.93;;;12.20;99.90;;;;;;4997095;28;20530;-70
2024/02/10 01:17:56;;;;;;;11.93;10.73;;;12.20;99.90;;;;;;4996751;28;20497;-70
2024/02/10 01:20:22;;;;;;;12.17;10.97;;;12.20;99.90;;;;;;4996811;28;20449;-70
2024/02/10 01:22:48;;;;;;;13.50;12.17;;;12.30;99.90;;;;;;4996754;28;20438;-70
2024/02/10 01:25:14;;;;;;;12.30;10.73;;;12.20;99.90;;;;;;4996738;28;20404;-70
2024/02/10 01:27:44;;;;;;;10.90;9.90;;;12.10;99.90;;;;;;4996677;28;20182;-70
2024/02/10 01:30:10;;;;;;;12.00;10.90;;;12.10;99.90;;;;;;4996831;28;20172;-70
2024/02/10 01:32:36;;;;;;;9.27;8.40;;;12.10;99.90;;;;;;4996790;28;20439;-70
2024/02/10 01:35:03;;;;;;;8.13;7.33;;;12.00;99.90;;;;;;4996700;28;20486;-70
2024/02/10 01:37:30;;;;;;;9.43;8.53;;;11.90;99.90;;;;;;4996450;28;20461;-70
2024/02/10 01:39:55;;;;;;;8.73;7.83;;;11.90;99.90;;;;;;4996427;28;20443;-69
2024/02/10 01:42:27;;;;;;;7.73;7.07;;;11.90;99.90;;;;;;4996993;28;20459;-69
2024/02/10 01:44:53;;;;;;;9.30;8.10;;;12.00;99.90;;;;;;4996696;28;20401;-69
2024/02/10 01:47:20;;;;;;;7.07;6.40;;;11.90;99.90;;;;;;4996422;28;20424;-69
2024/02/10 01:49:45;;;;;;;8.73;7.83;;;11.90;99.90;;;;;;4996300;28;20207;-69
2024/02/10 01:52:14;;;;;;;7.83;6.67;;;11.90;99.90;;;;;;4996215;28;20869;-69
2024/02/10 01:54:43;;;;;;;8.60;7.70;;;11.90;99.90;;;;;;4996108;28;20689;-69
2024/02/10 01:57:10;;;;;;;8.83;7.97;;;11.90;99.90;;;;;;4996535;28;20824;-69
2024/02/10 01:59:36;;;;;;;7.50;6.80;;;11.90;99.90;;;;;;4996327;28;20965;-69
2024/02/10 02:02:05;;;;;;;6.70;6.00;;;11.90;99.90;;;;;;4996483;28;20773;-70
2024/02/10 02:04:35;;;;;;;7.20;6.30;;;11.90;99.90;;;;;;4996281;28;20424;-71
2024/02/10 02:07:03;;;;;;;7.07;6.37;;;11.90;99.90;;;;;;4996292;28;20412;-70
2024/02/10 02:09:29;;;;;;;6.57;5.97;;;11.90;99.90;;;;;;4996353;28;20446;-70
2024/02/10 02:11:55;;;;;;;6.17;5.60;;;11.80;99.90;;;;;;4996300;28;20938;-70
2024/02/10 02:14:21;;;;;;;8.13;5.90;;;11.80;99.90;;;;;;4995854;28;20276;-70
2024/02/10 02:16:48;;;;;;;6.67;6.10;;;11.80;99.90;;;;;;4996523;28;20169;-71
2024/02/10 02:19:14;;;;;;;6.97;5.70;;;11.80;99.90;;;;;;4995917;28;20165;-70
2024/02/10 02:21:42;;;;;;;5.60;4.90;;;11.80;99.90;;;;;;4995336;28;20414;-70
2024/02/10 02:24:07;;;;;;;7.10;6.40;;;11.70;99.90;;;;;;4995835;28;20436;-71
2024/02/10 02:26:33;;;;;;;7.67;5.60;;;11.60;99.90;;;;;;4995529;28;20923;-70
2024/02/10 02:28:59;;;;;;;6.53;5.90;;;11.70;99.90;;;;;;4994346;28;20161;-70
2024/02/10 02:31:25;;;;;;;5.40;4.83;;;11.70;99.90;;;;;;4995601;28;20181;-70
2024/02/10 02:33:53;;;;;;;7.57;5.80;;;11.80;99.90;;;;;;4995970;28;20646;-69
2024/02/10 02:36:19;;;;;;;5.90;5.30;;;11.80;99.90;;;;;;4996238;28;20424;-70
2024/02/10 02:38:45;;;;;;;8.23;7.10;;;11.90;99.90;;;;;;4995335;28;20913;-70
2024/02/10 02:41:10;;;;;;;6.27;5.70;;;12.00;99.90;;;;;;4995637;28;20200;-69
2024/02/10 02:43:36;;;;;;;8.17;7.37;;;12.00;99.90;;;;;;4995185;28;20511;-70
2024/02/10 02:46:03;;;;;;;7.73;7.03;;;12.00;99.90;;;;;;4995281;28;20173;-69
2024/02/10 02:48:29;;;;;;;8.90;8.00;;;12.00;99.90;;;;;;4994790;28;20249;-70
2024/02/10 02:50:55;;;;;;;7.70;6.93;;;11.90;99.90;;;;;;4995149;28;20482;-69
2024/02/10 02:53:23;;;;;;;11.27;7.43;;;11.70;99.90;;;;;;5007378;28;20217;-70
2024/02/10 02:55:49;;;;;;;7.53;6.80;;;11.80;99.90;;;;;;5014805;28;20404;-70
2024/02/10 02:58:14;;;;;;;8.97;8.03;;;11.90;99.90;;;;;;5015551;28;20467;-69
2024/02/10 03:00:40;;;;;;;7.47;6.67;;;11.90;99.90;;;;;;4997823;28;20196;-69
2024/02/10 03:03:06;;;;;;;8.53;7.63;;;11.90;99.90;;;;;;4994614;28;20596;-69
2024/02/10 03:05:31;;;;;;;7.30;6.00;;;11.90;99.90;;;;;;4994750;28;20337;-69
2024/02/10 03:07:57;;;;;;;8.87;7.97;;;11.80;99.90;;;;;;4994951;28;20222;-70
2024/02/10 03:10:23;;;;;;;8.00;7.20;;;11.80;99.90;;;;;;4993284;28;20175;-70
2024/02/10 03:12:48;;;;;;;10.30;7.63;;;11.80;99.90;;;;;;4994957;28;20672;-70
2024/02/10 03:15:15;;;;;;;11.03;9.43;;;11.90;99.90;;;;;;4994485;28;20168;-70
2024/02/10 03:17:46;;;;;;;10.17;8.73;;;11.80;99.90;;;;;;4994753;28;20174;-70
2024/02/10 03:20:12;;;;;;;9.93;8.93;;;11.60;99.90;;;;;;4994322;28;20958;-70
2024/02/10 03:22:38;;;;;;;12.93;11.17;;;11.60;99.90;;;;;;4994321;28;20930;-70
2024/02/10 03:25:04;;;;;;;10.43;9.30;;;11.50;99.90;;;;;;4994670;28;20405;-69
2024/02/10 03:27:30;;;;;;;11.30;10.10;;;11.50;99.90;;;;;;4994582;28;20176;-70
2024/02/10 03:29:55;;;;;;;9.87;8.97;;;11.50;99.90;;;;;;4994346;28;20409;-70
2024/02/10 03:32:21;;;;;;;10.07;8.97;;;11.50;99.90;;;;;;4992919;28;20173;-70
2024/02/10 03:34:46;;;;;;;9.47;7.93;;;11.50;99.90;;;;;;4993594;28;20199;-71
2024/02/10 03:37:12;;;;;;;12.20;10.33;;;11.40;99.90;;;;;;4994134;28;20668;-70
2024/02/10 03:39:38;;;;;;;11.03;9.93;;;11.40;99.90;;;;;;4994163;28;20192;-70
2024/02/10 03:42:05;;;;;;;10.67;9.57;;;11.20;99.90;;;;;;4993954;28;20256;-70
2024/02/10 03:44:31;;;;;;;11.73;10.60;;;11.20;99.90;;;;;;4993995;28;20427;-70
2024/02/10 03:47:00;;;;;;;12.17;9.90;;;11.10;99.90;;;;;;4994061;28;20401;-70
2024/02/10 03:49:29;;;;;;;10.73;9.73;;;11.20;99.90;;;;;;4994060;28;20409;-70
2024/02/10 03:51:54;;;;;;;15.20;13.60;;;11.20;99.90;;;;;;4992791;28;20421;-70
2024/02/10 03:54:20;;;;;;;12.50;11.20;;;11.20;99.90;;;;;;4993684;28;20452;-70
2024/02/10 03:56:46;;;;;;;14.43;12.93;;;11.20;99.90;;;;;;4994088;28;20588;-70
2024/02/10 03:59:13;;;;;;;12.83;11.60;;;11.20;99.90;;;;;;4994061;28;20227;-70
2024/02/10 04:01:42;;;;;;;13.90;10.20;;;11.20;99.90;;;;;;4993929;28;20878;-70
2024/02/10 04:04:08;;;;;;;16.87;12.63;;;11.10;99.90;;;;;;4993735;28;20419;-70
2024/02/10 04:06:33;;;;;;;13.53;12.17;;;11.20;99.90;;;;;;4993706;28;20773;-71
2024/02/10 04:09:05;;;;;;;15.93;14.33;;;11.10;99.90;;;;;;4993897;28;20169;-70
2024/02/10 04:11:31;;;;;;;18.60;15.27;;;10.90;99.90;;;;;;4993875;28;20157;-70
2024/02/10 04:13:58;;;;;;;17.10;15.30;;;10.90;99.90;;;;;;4993498;28;20815;-70
2024/02/10 04:16:24;;;;;;;20.73;16.70;;;10.70;99.90;;;;;;4993798;28;20172;-70
2024/02/10 04:18:51;;;;;;;17.07;15.27;;;10.90;99.90;;;;;;4993381;28;20430;-70
2024/02/10 04:21:16;;;;;;;14.67;12.70;;;11.10;99.90;;;;;;4993694;28;20251;-70
2024/02/10 04:23:42;;;;;;;18.83;16.80;;;11.00;99.90;;;;;;4993601;28;20435;-69
2024/02/10 04:26:08;;;;;;;17.93;15.80;;;10.90;99.90;;;;;;4992492;28;20186;-70
2024/02/10 04:28:33;;;;;;;17.77;15.87;;;11.00;99.90;;;;;;4993964;28;20970;-70
2024/02/10 04:30:59;;;;;;;17.40;15.60;;;11.10;99.90;;;;;;4993330;28;20183;-70
2024/02/10 04:33:25;;;;;;;13.27;11.87;;;11.20;99.90;;;;;;4993405;28;20225;-70
2024/02/10 04:35:51;;;;;;;15.50;13.90;;;11.00;99.90;;;;;;4993654;28;20574;-70
2024/02/10 04:38:17;;;;;;;14.93;12.87;;;11.00;99.90;;;;;;4994185;28;20180;-70
2024/02/10 04:40:43;;;;;;;15.57;13.80;;;11.10;99.90;;;;;;4993485;28;20188;-69
2024/02/10 04:43:09;;;;;;;15.10;13.50;;;11.20;99.90;;;;;;4993579;28;20179;-70
2024/02/10 04:45:35;;;;;;;18.93;15.60;;;11.30;99.90;;;;;;4996387;28;20405;-70
2024/02/10 04:48:03;;;;;;;15.37;13.80;;;11.30;99.90;;;;;;4997540;28;20185;-70
2024/02/10 04:50:29;;;;;;;21.43;17.20;;;11.30;99.90;;;;;;4997328;28;20411;-70
2024/02/10 04:52:56;;;;;;;17.00;14.60;;;11.30;99.90;;;;;;5021527;23;20443;-67
2024/02/10 04:55:23;;;;;;;18.93;16.10;;;11.30;99.90;;;;;;4998223;28;20451;-69
2024/02/10 04:57:50;;;;;;;15.17;13.57;;;11.30;99.90;;;;;;4997621;28;20486;-69
2024/02/10 05:00:16;;;;;;;16.43;14.80;;;11.30;99.90;;;;;;4997045;28;20843;-69
2024/02/10 05:02:46;;;;;;;16.90;15.10;;;11.30;99.90;;;;;;4996023;28;20794;-68
2024/02/10 05:05:13;;;;;;;15.63;13.40;;;11.30;99.90;;;;;;4997330;28;20503;-69
2024/02/10 05:07:46;;;;;;;15.10;13.60;;;11.20;99.90;;;;;;4997932;28;20807;-69
2024/02/10 05:10:18;;;;;;;17.97;15.87;;;11.00;99.90;;;;;;4997298;28;20463;-68
2024/02/10 05:12:44;;;;;;;18.67;15.20;;;11.20;99.90;;;;;;4997453;28;20404;-69
2024/02/10 05:15:21;;;;;;;14.87;13.37;;;11.20;99.90;;;;;;4997113;28;20445;-68
2024/02/10 05:17:49;;;;;;;18.33;15.70;;;11.30;99.90;;;;;;4997388;28;20442;-69
2024/02/10 05:20:20;;;;;;;18.40;16.40;;;11.30;99.90;;;;;;4994885;28;20452;-68
2024/02/10 05:22:50;;;;;;;16.33;14.63;;;11.40;99.90;;;;;;4987920;28;20531;-68
2024/02/10 05:25:20;;;;;;;17.30;14.53;;;11.30;99.90;;;;;;4987510;28;20435;-68
2024/02/10 05:27:47;;;;;;;17.70;15.83;;;11.30;99.90;;;;;;4987430;28;20407;-68
2024/02/10 05:30:31;;;;;;;15.77;13.67;;;11.30;99.90;;;;;;4986366;28;20427;-69
2024/02/10 05:33:04;;;;;;;18.67;16.70;;;11.30;99.90;;;;;;4987373;28;20492;-69
2024/02/10 05:35:31;;;;;;;16.70;14.87;;;11.20;99.90;;;;;;4987348;28;20411;-68
2024/02/10 05:37:59;;;;;;;18.70;16.70;;;11.00;99.90;;;;;;4987417;28;20462;-68
2024/02/10 05:40:26;;;;;;;18.70;16.53;;;11.00;99.90;;;;;;4987432;28;20477;-69
2024/02/10 05:42:56;;;;;;;18.27;15.07;;;11.00;99.90;;;;;;4987404;28;20422;-69
2024/02/10 05:45:22;;;;;;;16.23;14.00;;;10.90;99.90;;;;;;4987807;28;20733;-67
2024/02/10 05:47:51;;;;;;;17.27;15.47;;;10.90;99.90;;;;;;4987361;28;20450;-69
2024/02/10 05:50:24;;;;;;;18.80;16.00;;;10.80;99.90;;;;;;4985846;28;20268;-69
2024/02/10 05:52:51;;;;;;;20.20;17.47;;;10.70;99.90;;;;;;4987515;28;20402;-69
2024/02/10 05:55:25;;;;;;;16.57;14.63;;;10.60;99.90;;;;;;4986745;28;20831;-68
2024/02/10 05:57:55;;;;;;;20.90;17.57;;;10.70;99.90;;;;;;4986488;28;20494;-69
2024/02/10 06:00:21;;;;;;;21.00;16.57;;;10.70;99.90;;;;;;4987240;28;20453;-69
2024/02/10 06:02:47;;;;;;;18.57;16.57;;;10.70;99.90;;;;;;4987353;28;20408;-69
2024/02/10 06:05:14;;;;;;;18.53;15.77;;;10.70;99.90;;;;;;4987177;28;21183;-69
2024/02/10 06:07:43;;;;;;;18.50;15.73;;;10.70;99.90;;;;;;4987128;28;20482;-69
2024/02/10 06:10:12;;;;;;;17.00;15.20;;;10.70;99.90;;;;;;4986997;28;20454;-69
2024/02/10 06:12:58;;;;;;;18.27;14.60;;;10.70;99.90;;;;;;4986914;28;20488;-69
2024/02/10 06:15:25;;;;;;;15.80;13.57;;;10.70;99.90;;;;;;4987019;28;21135;-67
2024/02/10 06:17:54;;;;;;;20.90;15.17;;;10.70;99.90;;;;;;4987119;28;20423;-69
2024/02/10 06:20:22;;;;;;;20.17;15.33;;;10.70;99.90;;;;;;4986729;28;20452;-69
2024/02/10 06:22:50;;;;;;;19.13;15.13;;;10.70;99.90;;;;;;4986894;28;20415;-68
2024/02/10 06:25:22;;;;;;;19.87;16.50;;;10.60;99.90;;;;;;4985203;28;20437;-69
2024/02/10 06:27:51;;;;;;;17.80;14.30;;;10.60;99.90;;;;;;4986532;28;20411;-69
2024/02/10 06:30:17;;;;;;;20.70;16.77;;;10.70;99.90;;;;;;4986411;28;20411;-69
2024/02/10 06:32:46;;;;;;;19.30;16.97;;;10.70;99.90;;;;;;4986634;28;20941;-68
2024/02/10 06:35:13;;;;;;;18.63;16.60;;;10.60;99.90;;;;;;4986439;28;20945;-67
2024/02/10 06:37:42;;;;;;;18.13;15.40;;;10.70;99.90;;;;;;4986484;28;20438;-68
2024/02/10 06:40:09;;;;;;;25.00;18.90;;;10.50;99.90;;;;;;4986427;28;20822;-69
2024/02/10 06:42:37;;;;;;;19.37;17.30;;;10.50;99.90;;;;;;4985850;28;20419;-68
2024/02/10 06:45:14;;;;;;;16.80;14.73;;;10.50;99.90;;;;;;4986099;28;20435;-68
2024/02/10 06:47:44;;;;;;;22.03;17.40;;;10.60;99.90;;;;;;4986760;28;20408;-68
2024/02/10 06:50:14;;;;;;;20.20;17.00;;;10.60;99.90;;;;;;4990039;28;20422;-69
2024/02/10 06:52:43;;;;;;;18.00;14.63;;;10.60;99.90;;;;;;4995763;28;20767;-68
2024/02/10 06:55:12;;;;;;;22.30;17.20;;;10.50;99.90;;;;;;4995736;28;20447;-68
2024/02/10 06:57:41;;;;;;;18.77;16.77;;;10.50;99.90;;;;;;4995062;28;20400;-68
2024/02/10 07:00:13;;;;;;;18.03;15.57;;;10.60;99.90;;;;;;4994881;28;20454;-69
2024/02/10 07:02:41;;;;;;;20.07;17.40;;;10.50;99.90;;;;;;4994598;28;20411;-69
2024/02/10 07:05:09;;;;;;;23.03;17.33;;;10.50;99.90;;;;;;4993741;28;20969;-69
2024/02/10 07:07:34;;;;;;;23.27;18.77;;;10.60;99.90;;;;;;4995105;28;20408;-66
2024/02/10 07:10:00;;;;;;;20.87;17.43;;;10.70;99.90;;;;;;4995136;28;20450;-69
2024/02/10 07:12:26;;;;;;;24.57;18.97;;;10.80;99.90;;;;;;4995288;28;20196;-68
2024/02/10 07:14:52;;;;;;;22.90;17.20;;;10.80;99.90;;;;;;4994866;28;20267;-69
2024/02/10 07:17:18;;;;;;;19.40;16.13;;;10.80;99.90;;;;;;4995027;28;20818;-69
2024/02/10 07:19:49;;;;;;;23.47;17.37;;;10.80;99.90;;;;;;4994759;28;20454;-68
2024/02/10 07:22:19;;;;;;;22.50;18.53;;;10.80;99.90;;;;;;4995056;28;20168;-68
2024/02/10 07:24:46;;;;;;;19.47;15.03;;;10.90;99.90;;;;;;4994860;28;20429;-69
2024/02/10 07:27:22;;;;;;;18.90;16.47;;;10.90;99.90;;;;;;4994811;28;20434;-69
2024/02/10 07:29:48;;;;;;;16.40;14.60;;;10.90;99.90;;;;;;4995011;28;20387;-69
2024/02/10 07:32:14;;;;;;;23.63;18.80;;;10.90;99.90;;;;;;4994682;28;20444;-68
2024/02/10 07:34:40;;;;;;;23.47;18.13;;;11.00;99.90;;;;;;4994139;28;20432;-68
2024/02/10 07:37:07;;;;;;;20.37;17.37;;;11.00;99.90;;;;;;4994808;28;20176;-68
2024/02/10 07:39:33;;;;;;;23.27;19.40;;;11.00;99.90;;;;;;4994578;28;20439;-69
2024/02/10 07:42:01;;;;;;;22.97;20.33;;;11.00;99.90;;;;;;4994545;28;20404;-68
2024/02/10 07:44:27;;;;;;;20.20;17.37;;;10.90;99.90;;;;;;4994322;28;20938;-68
2024/02/10 07:46:56;;;;;;;22.80;19.43;;;11.00;99.90;;;;;;4994685;28;20407;-69
2024/02/10 07:49:22;;;;;;;21.60;17.90;;;11.10;99.90;;;;;;4994483;28;20408;-69
2024/02/10 07:51:48;;;;;;;21.23;18.80;;;11.20;99.90;;;;;;4994394;28;20822;-69
2024/02/10 07:54:20;;;;;;;24.67;19.03;;;11.20;99.90;;;;;;4994411;28;20491;-68
2024/02/10 07:56:46;;;;;;;21.50;18.20;;;11.30;99.90;;;;;;4994637;28;20436;-68
2024/02/10 07:59:12;;;;;;;23.00;18.83;;;11.40;99.90;;;;;;4994233;28;20462;-68
2024/02/10 08:01:38;;;;;;;21.30;17.90;;;11.40;99.90;;;;;;4994079;28;20937;-68
2024/02/10 08:04:09;;;;;;;21.20;18.80;;;11.50;99.90;;;;;;4993894;28;20437;-68
2024/02/10 08:06:35;;;;;;;21.43;17.73;;;11.50;99.90;;;;;;4986840;28;20683;-69
2024/02/10 08:09:01;;;;;;;24.60;20.17;;;11.60;99.90;;;;;;4984706;28;20428;-69
2024/02/10 08:11:27;;;;;;;22.83;18.83;;;11.60;99.90;;;;;;4984473;28;20430;-69
2024/02/10 08:13:57;;;;;;;19.97;17.00;;;11.60;99.90;;;;;;4984366;28;20201;-69
2024/02/10 08:16:36;;;;;;;29.87;24.40;;;11.60;99.90;;;;;;4984558;28;20417;-69
2024/02/10 08:19:02;;;;;;;27.10;23.30;;;11.60;99.90;;;;;;4984313;28;20983;-68
2024/02/10 08:21:30;;;;;;;22.00;19.03;;;11.60;99.90;;;;;;4982996;28;20581;-68
2024/02/10 08:23:59;;;;;;;20.00;17.43;;;11.70;99.90;;;;;;4984585;28;20204;-69
2024/02/10 08:26:28;;;;;;;22.90;18.40;;;11.70;99.90;;;;;;4984547;28;20411;-69
2024/02/10 08:28:58;;;;;;;24.93;20.57;;;11.70;99.90;;;;;;4984708;28;20413;-68
2024/02/10 08:31:30;;;;;;;24.10;20.20;;;11.80;99.90;;;;;;4993553;28;20408;-69
2024/02/10 08:33:58;;;;;;;23.00;19.53;;;11.70;99.90;;;;;;4992444;28;20436;-68
2024/02/10 08:36:27;;;;;;;24.10;21.50;;;11.80;99.90;;;;;;4993718;28;20422;-69
2024/02/10 08:38:56;;;;;;;22.83;19.80;;;11.90;99.90;;;;;;4993877;28;20466;-69
2024/02/10 08:41:22;;;;;;;27.40;22.57;;;12.00;99.90;;;;;;4993715;28;21006;-70
2024/02/10 08:43:48;;;;;;;24.43;21.77;;;11.80;99.90;;;;;;4993667;28;20834;-68
2024/02/10 08:46:18;;;;;;;23.70;20.30;;;11.80;99.90;;;;;;4993932;28;20461;-69
2024/02/10 08:48:44;;;;;;;32.07;26.10;;;11.80;99.90;;;;;;4992064;28;20162;-69
2024/02/10 08:51:12;;;;;;;31.50;26.07;;;11.60;99.90;;;;;;4993700;28;20400;-69
2024/02/10 08:53:40;;;;;;;25.63;22.10;;;11.50;99.90;;;;;;4993865;28;20445;-68
2024/02/10 08:56:10;;;;;;;28.23;22.50;;;11.60;99.90;;;;;;4993846;28;20950;-69
2024/02/10 08:58:39;;;;;;;24.00;20.73;;;11.70;99.90;;;;;;4994568;28;20396;-70
2024/02/10 09:01:06;;;;;;;27.47;22.40;;;11.80;99.90;;;;;;5011796;28;20456;-69
2024/02/10 09:03:33;;;;;;;25.87;21.30;;;11.80;99.90;;;;;;5003528;28;20429;-69
2024/02/10 09:05:58;;;;;;;31.03;24.57;;;11.90;99.90;;;;;;4993533;28;20402;-68
2024/02/10 09:08:24;;;;;;;26.40;20.00;;;11.90;99.90;;;;;;4993676;28;20412;-69
2024/02/10 09:10:49;;;;;;;26.37;21.40;;;11.90;99.90;;;;;;4993651;28;20656;-69
2024/02/10 09:13:15;;;;;;;31.60;25.97;;;12.00;99.90;;;;;;4993512;28;20194;-69
2024/02/10 09:15:41;;;;;;;24.90;21.80;;;12.10;99.90;;;;;;4993474;28;20200;-69
2024/02/10 09:18:06;;;;;;;24.50;20.83;;;12.10;99.90;;;;;;4992342;28;20180;-69
2024/02/10 09:20:32;;;;;;;23.30;20.20;;;12.20;99.90;;;;;;4993477;28;20737;-69
2024/02/10 09:22:59;;;;;;;23.07;20.33;;;12.30;99.90;;;;;;4993818;28;20173;-69
2024/02/10 09:25:28;;;;;;;24.47;19.23;;;12.40;99.90;;;;;;4993402;28;20492;-69
2024/02/10 09:27:56;;;;;;;24.87;21.73;;;12.10;99.90;;;;;;4993182;28;20925;-69
2024/02/10 09:30:25;;;;;;;28.07;22.60;;;11.90;99.90;;;;;;4993501;28;20449;-69
2024/02/10 09:32:51;;;;;;;22.67;20.20;;;12.00;99.90;;;;;;4996521;28;20421;-69
2024/02/10 09:35:22;;;;;;;23.90;19.67;;;11.90;99.90;;;;;;4996876;28;20438;-69
2024/02/10 09:37:51;;;;;;;26.63;21.33;;;11.80;99.90;;;;;;4997569;28;20384;-69
2024/02/10 09:40:22;;;;;;;23.53;19.70;;;11.80;99.90;;;;;;4997212;28;20443;-69
2024/02/10 09:42:53;;;;;;;21.70;17.77;;;11.90;99.90;;;;;;4996763;28;20387;-69
2024/02/10 09:45:23;;;;;;;24.77;20.23;;;12.10;99.90;;;;;;4996771;28;20757;-69
2024/02/10 09:47:50;;;;;;;24.37;20.13;;;12.20;99.90;;;;;;4996764;28;20422;-69
2024/02/10 09:50:16;;;;;;;25.03;20.37;;;12.30;99.90;;;;;;4996709;28;20406;-69
2024/02/10 09:52:47;;;;;;;25.80;22.80;;;12.40;99.90;;;;;;4997056;28;20401;-69
2024/02/10 09:55:14;;;;;;;25.30;20.97;;;12.40;99.90;;;;;;4996900;28;20451;-71
2024/02/10 09:57:44;;;;;;;25.90;22.00;;;12.50;99.90;;;;;;4996249;28;20414;-71
2024/02/10 10:00:12;;;;;;;29.67;24.13;;;12.50;99.90;;;;;;4996412;28;20906;-71
2024/02/10 10:02:40;;;;;;;24.27;20.70;;;12.50;99.90;;;;;;4996042;28;20895;-71
2024/02/10 10:05:06;;;;;;;27.40;21.83;;;12.60;99.90;;;;;;4995960;28;20440;-71
2024/02/10 10:07:32;;;;;;;22.40;19.63;;;12.60;99.90;;;;;;4996144;28;20410;-69
2024/02/10 10:09:58;;;;;;;22.80;20.37;;;12.70;99.90;;;;;;4995750;28;20423;-70
2024/02/10 10:12:25;;;;;;;24.33;21.10;;;12.70;99.90;;;;;;4996219;28;20247;-71
2024/02/10 10:14:52;;;;;;;26.20;23.23;;;12.50;99.90;;;;;;4995843;28;20840;-70
2024/02/10 10:17:18;;;;;;;22.67;20.13;;;12.50;99.90;;;;;;4996022;28;20487;-70
2024/02/10 10:19:46;;;;;;;26.43;21.83;;;12.60;99.90;;;;;;4995911;28;20992;-70
2024/02/10 10:22:17;;;;;;;24.10;19.57;;;12.60;99.90;;;;;;4996344;28;20172;-70
2024/02/10 10:24:43;;;;;;;23.20;20.13;;;12.60;99.90;;;;;;4995728;28;20431;-70
2024/02/10 10:27:08;;;;;;;23.07;19.40;;;12.70;99.90;;;;;;4995718;28;20411;-70
2024/02/10 10:29:36;;;;;;;26.47;21.50;;;12.80;99.90;;;;;;4995663;28;20179;-70
2024/02/10 10:32:04;;;;;;;25.07;20.47;;;12.80;99.90;;;;;;4995957;28;20578;-70
2024/02/10 10:34:31;;;;;;;24.03;20.87;;;12.80;99.90;;;;;;4995557;28;20435;-72
2024/02/10 10:37:00;;;;;;;24.90;22.30;;;12.90;99.90;;;;;;4995924;28;20457;-71
2024/02/10 10:39:27;;;;;;;22.93;20.53;;;12.90;99.90;;;;;;4996175;28;20543;-70
2024/02/10 10:41:55;;;;;;;22.20;19.13;;;12.80;99.90;;;;;;4994868;28;20919;-70
2024/02/10 10:44:21;;;;;;;22.70;19.10;;;12.80;99.90;;;;;;4995352;28;20424;-71
2024/02/10 10:46:47;;;;;;;21.87;19.57;;;12.70;99.90;;;;;;4995687;28;20408;-70
2024/02/10 10:49:12;;;;;;;19.50;17.40;;;12.70;99.90;;;;;;4994208;28;20169;-70
2024/02/10 10:52:04;;;;;;;22.90;20.47;;;12.70;99.90;;;;;;4995259;28;20183;-70
2024/02/10 10:54:34;;;;;;;25.87;23.10;;;12.70;99.90;;;;;;5018729;23;20702;-72
2024/02/10 10:57:03;;;;;;;31.40;24.73;;;12.50;99.90;;;;;;5003062;28;20424;-71
2024/02/10 10:59:35;;;;;;;28.47;23.10;;;12.40;99.90;;;;;;5014446;28;20393;-71
2024/02/10 11:02:04;;;;;;;34.33;27.50;;;12.60;99.90;;;;;;5014530;28;20493;-71
2024/02/10 11:04:33;;;;;;;31.30;27.03;;;12.40;99.90;;;;;;4995738;28;20929;-71
2024/02/10 11:06:59;;;;;;;34.67;27.53;;;12.40;99.90;;;;;;4994836;28;20418;-70
2024/02/10 11:09:26;;;;;;;31.00;26.57;;;12.40;99.90;;;;;;4995068;28;20416;-71
2024/02/10 11:11:52;;;;;;;33.37;28.50;;;12.60;99.90;;;;;;4994628;28;20184;-71
2024/02/10 11:14:18;;;;;;;34.13;26.90;;;12.40;99.90;;;;;;4994721;28;20438;-71
2024/02/10 11:16:44;;;;;;;31.47;24.77;;;12.10;99.90;;;;;;4994668;28;20515;-71
2024/02/10 11:19:12;;;;;;;28.73;24.80;;;11.70;99.90;;;;;;4994794;28;20456;-71
2024/02/10 11:21:39;;;;;;;32.70;27.00;;;11.70;99.90;;;;;;4994538;28;20627;-71
2024/02/10 11:24:16;;;;;;;28.30;25.40;;;11.80;99.90;;;;;;4994361;28;20768;-71
2024/02/10 11:26:42;;;;;;;33.10;27.67;;;11.90;99.90;;;;;;4994590;28;20912;-71
2024/02/10 11:29:09;;;;;;;39.30;30.20;;;11.70;99.90;;;;;;4994392;28;20395;-71
2024/02/10 11:31:41;;;;;;;30.13;26.83;;;11.90;99.90;;;;;;4994676;28;20830;-72
2024/02/10 11:34:14;;;;;;;31.70;26.73;;;12.00;99.90;;;;;;4993855;28;20404;-72
2024/02/10 11:36:48;;;;;;;32.83;28.77;;;12.20;99.90;;;;;;4994481;28;20902;-71
2024/02/10 11:39:14;;;;;;;29.63;24.77;;;12.10;99.90;;;;;;4994382;28;20397;-71
2024/02/10 11:41:40;;;;;;;33.17;27.10;;;12.10;99.90;;;;;;4994024;28;20821;-71
2024/02/10 11:44:07;;;;;;;32.80;28.43;;;12.30;99.90;;;;;;4993952;28;20403;-71
2024/02/10 11:46:36;;;;;;;30.73;25.77;;;12.00;99.90;;;;;;4994180;28;20935;-71
2024/02/10 11:49:02;;;;;;;26.80;23.20;;;11.90;99.90;;;;;;4993276;28;20411;-71
2024/02/10 11:51:29;;;;;;;26.90;23.40;;;12.10;99.90;;;;;;4993948;28;20781;-71
2024/02/10 11:53:58;;;;;;;29.53;25.60;;;12.10;99.90;;;;;;4993594;28;20425;-72
2024/02/10 11:56:33;;;;;;;32.73;25.67;;;12.20;99.90;;;;;;4994015;28;20416;-71
2024/02/10 11:59:01;;;;;;;28.77;24.20;;;12.40;99.90;;;;;;4992615;28;20403;-71
2024/02/10 12:01:34;;;;;;;25.67;22.33;;;12.60;99.90;;;;;;4994118;28;20857;-71
2024/02/10 12:04:04;;;;;;;25.70;22.37;;;12.70;99.90;;;;;;4994051;28;20491;-71
2024/02/10 12:06:30;;;;;;;26.03;23.23;;;12.70;99.90;;;;;;4994166;28;20776;-71
2024/02/10 12:08:55;;;;;;;27.40;21.27;;;12.80;99.90;;;;;;4993922;28;20400;-71
2024/02/10 12:11:26;;;;;;;27.93;23.77;;;12.50;99.90;;;;;;4994391;28;20166;-71
2024/02/10 12:13:56;;;;;;;28.20;22.37;;;12.40;99.90;;;;;;4993779;28;20190;-72
2024/02/10 12:16:23;;;;;;;23.70;19.50;;;12.30;99.90;;;;;;4994299;28;20442;-71
2024/02/10 12:18:49;;;;;;;23.40;18.87;;;12.40;99.90;;;;;;4994293;28;20406;-72
2024/02/10 12:21:19;;;;;;;21.37;19.13;;;12.50;99.90;;;;;;4993677;28;20539;-74
2024/02/10 12:23:48;;;;;;;22.30;19.17;;;12.40;99.90;;;;;;4993925;28;20181;-73
2024/02/10 12:26:14;;;;;;;22.87;19.77;;;12.50;99.90;;;;;;4993490;28;20426;-73
2024/02/10 12:28:40;;;;;;;21.53;18.60;;;12.80;99.90;;;;;;4993403;28;20413;-72
2024/02/10 12:31:06;;;;;;;25.53;20.70;;;12.90;99.90;;;;;;4994622;28;20407;-73
2024/02/10 12:33:32;;;;;;;21.87;18.77;;;13.00;99.90;;;;;;4993775;28;20419;-71